Anthony, West Virginia
Current Conditions -  °F | °C
As of 7:35 PM on Friday 24 Oct 2014 (Local Time) from KLWB Reporting Station
Clear Clear  
Wind Chill: 53°   Ceiling: Unl
Heat Index: 53°   Visibility: 10mi
Dew Point: 36°   Wind: 0mph
Humidity: 52%   Direction: NA
Pressure: 30.04"   Gusts: NA
Location:  38.0307°N, 80.4756°W
Report Text: KLWB 242335Z AUTO 00000KT 10SM CLR 12/02 A3004 RMK AO2 T01170022
Loading
Personal Weather Stations






























Interactive Weather Map
Tropical Storm Tracking
New forecast layout! Learn more

10-Day Weather Forecast

Advertisements
Track Severe Weather on mobile